createdAt,value
2024-05-09T00:00:35.946Z,14.06
2024-05-09T00:01:30.774Z,14.08
2024-05-09T00:02:29.838Z,14.12
2024-05-09T00:03:29.939Z,14.18
2024-05-09T00:04:29.859Z,14.14
2024-05-09T00:05:29.954Z,14.12
2024-05-09T00:06:29.831Z,14.12
2024-05-09T00:07:29.900Z,14.18
2024-05-09T00:08:30.022Z,14.24
2024-05-09T00:09:29.934Z,14.24
2024-05-09T00:10:36.042Z,14.29
2024-05-09T00:11:31.098Z,14.32
2024-05-09T00:12:30.062Z,14.31
2024-05-09T00:13:29.995Z,14.32
2024-05-09T00:14:30.029Z,14.31
2024-05-09T00:15:30.015Z,14.34
2024-05-09T00:16:30.045Z,14.39
2024-05-09T00:17:30.215Z,14.35
2024-05-09T00:18:30.247Z,14.34
2024-05-09T00:19:30.311Z,14.35
2024-05-09T00:20:37.278Z,14.35
2024-05-09T00:21:31.293Z,14.35
2024-05-09T00:22:30.297Z,14.34
2024-05-09T00:23:30.509Z,14.36
2024-05-09T00:24:30.374Z,14.36
2024-05-09T00:25:30.456Z,14.31
2024-05-09T00:26:30.625Z,14.26
2024-05-09T00:27:30.467Z,14.22
2024-05-09T00:28:30.480Z,14.21
2024-05-09T00:29:30.635Z,14.21
2024-05-09T00:30:35.275Z,14.16
2024-05-09T00:31:31.600Z,14.14
2024-05-09T00:32:30.677Z,14.16
2024-05-09T00:33:30.867Z,14.19
2024-05-09T00:34:30.782Z,14.18
2024-05-09T00:35:30.948Z,14.13
2024-05-09T00:36:30.700Z,14.14
2024-05-09T00:37:30.784Z,14.14
2024-05-09T00:38:30.897Z,14.14
2024-05-09T00:39:30.820Z,14.11
2024-05-09T00:40:38.476Z,14.15
2024-05-09T00:41:31.904Z,14.18
2024-05-09T00:42:30.906Z,14.21
2024-05-09T00:43:30.951Z,14.21
2024-05-09T00:44:31.049Z,14.19
2024-05-09T00:45:30.996Z,14.17
2024-05-09T00:46:31.042Z,14.19
2024-05-09T00:47:31.361Z,14.20
2024-05-09T00:48:31.216Z,14.26
2024-05-09T00:49:31.339Z,14.30
2024-05-09T00:50:36.197Z,14.35
2024-05-09T00:51:32.324Z,14.42
2024-05-09T00:52:31.315Z,14.49
2024-05-09T00:53:31.458Z,14.50
2024-05-09T00:54:31.391Z,14.47
2024-05-09T00:55:31.373Z,14.52
2024-05-09T00:56:31.474Z,14.53
2024-05-09T00:57:31.416Z,14.51
2024-05-09T00:58:31.430Z,14.47
2024-05-09T00:59:31.576Z,14.43
2024-05-09T01:00:38.320Z,14.41
2024-05-09T01:01:32.592Z,14.36
2024-05-09T01:02:31.635Z,14.35
2024-05-09T01:03:31.710Z,14.30
2024-05-09T01:04:31.736Z,14.23
2024-05-09T01:05:31.650Z,14.14
2024-05-09T01:06:31.642Z,14.09
2024-05-09T01:07:31.682Z,14.08
2024-05-09T01:08:31.804Z,14.10
2024-05-09T01:09:31.798Z,14.07
2024-05-09T01:10:34.828Z,14.07
2024-05-09T01:11:31.904Z,14.09
2024-05-09T01:12:31.947Z,14.09
2024-05-09T01:13:31.898Z,14.12
2024-05-09T01:14:31.980Z,14.16
2024-05-09T01:15:31.994Z,14.21
2024-05-09T01:16:31.975Z,14.27
2024-05-09T01:17:32.206Z,14.28
2024-05-09T01:18:32.183Z,14.27
2024-05-09T01:19:32.216Z,14.23
2024-05-09T01:20:40.354Z,14.22
2024-05-09T01:21:33.124Z,14.21
2024-05-09T01:22:32.142Z,14.16
2024-05-09T01:23:32.328Z,14.11
2024-05-09T01:24:32.206Z,14.09
2024-05-09T01:25:32.211Z,14.04
2024-05-09T01:26:32.260Z,14.06
2024-05-09T01:27:32.300Z,14.11
2024-05-09T01:28:32.305Z,14.08
2024-05-09T01:29:32.407Z,14.06
2024-05-09T01:30:35.635Z,14.01
2024-05-09T01:31:33.392Z,13.99
2024-05-09T01:32:32.607Z,13.97
2024-05-09T01:33:32.798Z,13.98
2024-05-09T01:34:32.508Z,13.95
2024-05-09T01:35:32.579Z,13.96
2024-05-09T01:36:32.496Z,13.97
2024-05-09T01:37:32.564Z,14.03
2024-05-09T01:38:32.652Z,14.06
2024-05-09T01:39:32.616Z,14.08
2024-05-09T01:40:38.144Z,14.08
2024-05-09T01:41:33.721Z,14.08
2024-05-09T01:42:32.716Z,14.11
2024-05-09T01:43:32.742Z,14.09
2024-05-09T01:44:32.816Z,14.07
2024-05-09T01:45:32.946Z,14.10
2024-05-09T01:46:32.838Z,14.13
2024-05-09T01:47:33.044Z,14.11
2024-05-09T01:48:32.917Z,14.08
2024-05-09T01:49:33.025Z,14.08
2024-05-09T01:50:39.077Z,14.10
2024-05-09T01:51:33.932Z,14.11
2024-05-09T01:52:32.975Z,14.11
2024-05-09T01:53:33.224Z,14.13
2024-05-09T01:54:33.087Z,14.15
2024-05-09T01:55:33.118Z,14.16
2024-05-09T01:56:33.195Z,14.12
2024-05-09T01:57:33.111Z,14.08
2024-05-09T01:58:33.160Z,14.09
2024-05-09T01:59:33.362Z,14.14
2024-05-09T02:00:39.529Z,14.16
2024-05-09T02:01:55.511Z,14.18
2024-05-09T02:02:34.411Z,14.15
2024-05-09T02:03:33.353Z,14.13
2024-05-09T02:04:33.459Z,14.14
2024-05-09T02:05:33.471Z,14.12
2024-05-09T02:06:33.327Z,14.08
2024-05-09T02:07:33.392Z,14.10
2024-05-09T02:08:33.606Z,14.12
2024-05-09T02:09:33.463Z,14.15
2024-05-09T02:10:33.733Z,14.16
2024-05-09T02:11:33.646Z,14.13
2024-05-09T02:12:33.622Z,14.13
2024-05-09T02:13:33.532Z,14.14
2024-05-09T02:14:33.617Z,14.13
2024-05-09T02:15:33.566Z,14.13
2024-05-09T02:16:33.664Z,14.13
2024-05-09T02:17:33.765Z,14.15
2024-05-09T02:18:33.797Z,14.17
2024-05-09T02:19:33.803Z,14.18
2024-05-09T02:20:36.511Z,14.20
2024-05-09T02:21:33.774Z,14.18
2024-05-09T02:22:33.966Z,14.14
2024-05-09T02:23:33.907Z,14.13
2024-05-09T02:24:33.911Z,14.15
2024-05-09T02:25:34.069Z,14.16
2024-05-09T02:26:33.943Z,14.15
2024-05-09T02:27:33.925Z,14.17
2024-05-09T02:28:33.930Z,14.18
2024-05-09T02:29:34.009Z,14.17
2024-05-09T02:31:33.957Z,14.05
2024-05-09T02:32:34.183Z,14.08
2024-05-09T02:33:34.107Z,14.08
2024-05-09T02:34:34.131Z,14.13
2024-05-09T02:35:34.096Z,14.13
2024-05-09T02:36:34.057Z,14.11
2024-05-09T02:37:34.049Z,14.13
2024-05-09T02:38:34.250Z,14.13
2024-05-09T02:39:34.116Z,14.12
2024-05-09T02:40:37.784Z,14.14
2024-05-09T02:41:35.232Z,14.18
2024-05-09T02:42:34.251Z,14.15
2024-05-09T02:43:34.242Z,14.11
2024-05-09T02:44:34.275Z,14.15
2024-05-09T02:45:34.272Z,14.17
2024-05-09T02:46:34.358Z,14.18
2024-05-09T02:47:34.456Z,14.16
2024-05-09T02:48:34.472Z,14.11
2024-05-09T02:49:34.523Z,14.11
2024-05-09T02:50:38.909Z,14.13
2024-05-09T02:51:35.446Z,14.12
2024-05-09T02:52:34.511Z,14.10
2024-05-09T02:53:34.666Z,14.11
2024-05-09T02:54:34.546Z,14.14
2024-05-09T02:55:34.588Z,14.17
2024-05-09T02:56:34.681Z,14.17
2024-05-09T02:57:34.648Z,14.13
2024-05-09T02:58:34.614Z,14.11
2024-05-09T02:59:34.708Z,14.11
2024-05-09T03:00:39.323Z,14.10
2024-05-09T03:01:35.795Z,14.10
2024-05-09T03:02:34.847Z,14.11
2024-05-09T03:03:34.893Z,14.08
2024-05-09T03:04:35.004Z,14.07
2024-05-09T03:05:35.019Z,14.05
2024-05-09T03:06:34.884Z,14.05
2024-05-09T03:07:34.862Z,14.01
2024-05-09T03:08:34.991Z,14.00
2024-05-09T03:09:34.976Z,13.98
2024-05-09T03:10:37.137Z,14.00
2024-05-09T03:11:35.123Z,14.02
2024-05-09T03:12:37.867Z,14.05
2024-05-09T03:13:34.992Z,14.07
2024-05-09T03:14:35.063Z,14.10
2024-05-09T03:15:35.072Z,14.16
2024-05-09T03:16:35.106Z,14.13
2024-05-09T03:17:35.234Z,14.13
2024-05-09T03:18:35.201Z,14.13
2024-05-09T03:19:35.136Z,14.08
2024-05-09T03:20:36.333Z,14.08
2024-05-09T03:21:35.230Z,14.10
2024-05-09T03:22:35.261Z,14.05
2024-05-09T03:23:35.247Z,14.06
2024-05-09T03:24:35.304Z,14.08
2024-05-09T03:25:35.262Z,14.08
2024-05-09T03:26:35.343Z,14.08
2024-05-09T03:27:35.306Z,14.11
2024-05-09T03:28:35.371Z,14.09
2024-05-09T03:29:35.456Z,14.06
2024-05-09T03:30:40.779Z,14.08
2024-05-09T03:31:36.630Z,14.10
2024-05-09T03:32:35.582Z,14.08
2024-05-09T03:33:35.651Z,14.07
2024-05-09T03:34:35.460Z,14.05
2024-05-09T03:35:35.576Z,14.01
2024-05-09T03:36:35.540Z,14.02
2024-05-09T03:37:35.585Z,14.02
2024-05-09T03:38:35.677Z,14.05
2024-05-09T03:39:35.598Z,14.04
2024-05-09T03:40:35.672Z,14.06
2024-05-09T03:41:35.830Z,14.09
2024-05-09T03:42:35.726Z,14.11
2024-05-09T03:43:35.738Z,14.10
2024-05-09T03:44:35.809Z,14.09
2024-05-09T03:45:35.751Z,14.11
2024-05-09T03:46:35.814Z,14.13
2024-05-09T03:47:36.073Z,14.07
2024-05-09T03:48:35.941Z,14.08
2024-05-09T03:49:35.951Z,14.08
2024-05-09T03:50:36.966Z,14.08
2024-05-09T03:51:35.887Z,14.07
2024-05-09T03:52:35.966Z,14.05
2024-05-09T03:53:36.110Z,14.06
2024-05-09T03:54:35.974Z,14.05
2024-05-09T03:55:36.129Z,14.04
2024-05-09T03:56:36.114Z,14.05
2024-05-09T03:57:36.145Z,14.06
2024-05-09T03:58:36.139Z,14.11
2024-05-09T03:59:36.273Z,14.11
2024-05-09T04:00:39.054Z,14.10
2024-05-09T04:01:36.448Z,14.11
2024-05-09T04:02:36.432Z,14.15
2024-05-09T04:03:36.539Z,14.18
2024-05-09T04:04:36.427Z,14.19
2024-05-09T04:05:36.492Z,14.18
2024-05-09T04:06:36.415Z,14.19
2024-05-09T04:07:36.467Z,14.17
2024-05-09T04:08:36.660Z,14.19
2024-05-09T04:09:36.530Z,14.20
2024-05-09T04:10:36.586Z,14.19
2024-05-09T04:11:36.617Z,14.18
2024-05-09T04:12:36.687Z,14.18
2024-05-09T04:13:36.621Z,14.16
2024-05-09T04:14:36.673Z,14.15
2024-05-09T04:15:36.646Z,14.13
2024-05-09T04:16:37.459Z,14.12
2024-05-09T04:17:37.199Z,14.17
2024-05-09T04:18:36.762Z,14.21
2024-05-09T04:19:36.776Z,14.24
2024-05-09T04:20:39.755Z,14.26
2024-05-09T04:21:36.780Z,14.22
2024-05-09T04:22:36.785Z,14.21
2024-05-09T04:23:36.910Z,14.20
2024-05-09T04:24:36.813Z,14.19
2024-05-09T04:25:36.855Z,14.19
2024-05-09T04:26:36.847Z,14.15
2024-05-09T04:27:36.846Z,14.11
2024-05-09T04:28:36.924Z,14.13
2024-05-09T04:29:37.007Z,14.13
2024-05-09T04:30:39.994Z,14.12
2024-05-09T04:31:36.935Z,14.12
2024-05-09T04:32:37.101Z,14.12
2024-05-09T04:33:37.196Z,14.15
2024-05-09T04:34:37.022Z,14.17
2024-05-09T04:35:37.088Z,14.20
2024-05-09T04:36:37.421Z,14.21
2024-05-09T04:37:37.082Z,14.22
2024-05-09T04:38:37.120Z,14.21
2024-05-09T04:39:37.095Z,14.18
2024-05-09T04:40:37.835Z,14.20
2024-05-09T04:41:37.220Z,14.18
2024-05-09T04:42:37.220Z,14.21
2024-05-09T04:43:37.221Z,14.23
2024-05-09T04:44:37.274Z,14.21
2024-05-09T04:45:37.272Z,14.19
2024-05-09T04:46:37.571Z,14.21
2024-05-09T04:47:37.531Z,14.22
2024-05-09T04:48:37.589Z,14.22
2024-05-09T04:49:37.442Z,14.24
2024-05-09T04:50:39.251Z,14.24
2024-05-09T04:51:37.593Z,14.24
2024-05-09T04:52:37.701Z,14.28
2024-05-09T04:53:37.841Z,14.26
2024-05-09T04:54:37.872Z,14.27
2024-05-09T04:55:37.968Z,14.26
2024-05-09T04:56:38.017Z,14.25
2024-05-09T04:57:38.135Z,14.27
2024-05-09T04:58:38.154Z,14.28
2024-05-09T04:59:38.272Z,14.27
2024-05-09T05:00:39.300Z,14.27
2024-05-09T05:02:01.020Z,14.29
2024-05-09T05:02:38.433Z,14.27
2024-05-09T05:03:38.763Z,14.27
2024-05-09T05:04:38.570Z,14.27
2024-05-09T05:05:38.626Z,14.28
2024-05-09T05:06:38.506Z,14.28
2024-05-09T05:07:38.521Z,14.33
2024-05-09T05:08:38.669Z,14.34
2024-05-09T05:09:38.571Z,14.38
2024-05-09T05:10:38.588Z,14.39
2024-05-09T05:11:38.670Z,14.40
2024-05-09T05:12:38.659Z,14.38
2024-05-09T05:13:41.463Z,14.40
2024-05-09T05:14:49.148Z,14.35
2024-05-09T05:15:49.190Z,14.39
2024-05-09T05:16:49.245Z,14.40
2024-05-09T05:17:49.341Z,14.40
2024-05-09T05:18:49.343Z,14.38
2024-05-09T05:19:49.621Z,14.37
2024-05-09T05:20:49.376Z,14.38
2024-05-09T05:21:49.255Z,14.38
2024-05-09T05:22:49.355Z,14.40
2024-05-09T05:23:49.349Z,14.39
2024-05-09T05:24:49.338Z,14.41
2024-05-09T05:25:49.648Z,14.44
2024-05-09T05:26:49.450Z,14.41
2024-05-09T05:27:49.395Z,14.41
2024-05-09T05:28:49.458Z,14.43
2024-05-09T05:29:49.501Z,14.45
2024-05-09T05:30:49.586Z,14.46
2024-05-09T05:31:49.645Z,14.42
2024-05-09T05:32:49.664Z,14.42
2024-05-09T05:33:49.678Z,14.46
2024-05-09T05:34:49.541Z,14.50
2024-05-09T05:35:49.591Z,14.49
2024-05-09T05:36:49.575Z,14.46
2024-05-09T05:37:49.626Z,14.44
2024-05-09T05:38:49.796Z,14.42
2024-05-09T05:39:49.645Z,14.38
2024-05-09T05:40:49.708Z,14.35
2024-05-09T05:41:49.660Z,14.33
2024-05-09T05:42:49.696Z,14.37
2024-05-09T05:43:49.777Z,14.37
2024-05-09T05:44:49.709Z,14.41
2024-05-09T05:47:12.664Z,14.35
2024-05-09T05:47:50.023Z,14.43
2024-05-09T05:48:49.990Z,14.48
2024-05-09T05:49:49.919Z,14.51
2024-05-09T05:50:49.968Z,14.54
2024-05-09T05:51:49.894Z,14.55
2024-05-09T05:52:50.065Z,14.54
2024-05-09T05:53:49.970Z,14.52
2024-05-09T05:54:49.971Z,14.48
2024-05-09T05:55:50.079Z,14.47
2024-05-09T05:56:50.040Z,14.44
2024-05-09T05:57:50.145Z,14.40
2024-05-09T05:58:50.187Z,14.38
2024-05-09T05:59:50.156Z,14.40
2024-05-09T06:00:50.315Z,14.45
2024-05-09T06:01:50.328Z,14.48
2024-05-09T06:02:50.720Z,14.47
2024-05-09T06:03:50.759Z,14.49
2024-05-09T06:04:50.772Z,14.53
2024-05-09T06:05:51.226Z,14.59
2024-05-09T06:06:50.771Z,14.66
2024-05-09T06:07:50.804Z,14.73
2024-05-09T06:08:50.985Z,14.81
2024-05-09T06:09:50.868Z,14.86
2024-05-09T06:10:50.993Z,14.89
2024-05-09T06:11:51.017Z,14.94
2024-05-09T06:12:51.091Z,15.01
2024-05-09T06:13:51.052Z,15.05
2024-05-09T06:14:51.125Z,15.10
2024-05-09T06:15:51.123Z,15.14
2024-05-09T06:16:51.178Z,15.16
2024-05-09T06:17:51.335Z,15.11
2024-05-09T06:18:51.351Z,15.06
2024-05-09T06:19:51.441Z,15.04
2024-05-09T06:20:51.440Z,15.05
2024-05-09T06:21:51.282Z,15.01
2024-05-09T06:22:52.062Z,14.97
2024-05-09T06:23:51.505Z,14.95
2024-05-09T06:24:51.478Z,15.00
2024-05-09T06:25:51.621Z,15.01
2024-05-09T06:26:51.668Z,14.99
2024-05-09T06:27:51.731Z,14.93
2024-05-09T06:28:51.881Z,14.89
2024-05-09T06:29:51.886Z,14.86
2024-05-09T06:30:52.020Z,14.90
2024-05-09T06:31:52.024Z,14.96
2024-05-09T06:32:52.222Z,15.09
2024-05-09T06:33:52.427Z,15.19
2024-05-09T06:34:52.115Z,15.28
2024-05-09T06:35:52.201Z,15.17
2024-05-09T06:36:52.103Z,15.19
2024-05-09T06:37:52.223Z,15.28
2024-05-09T06:38:52.259Z,15.29
2024-05-09T06:39:52.232Z,15.30
2024-05-09T06:40:52.388Z,15.31
2024-05-09T06:41:52.321Z,15.34
2024-05-09T06:42:52.388Z,15.41
2024-05-09T06:43:52.486Z,15.41
2024-05-09T06:44:52.573Z,15.41
2024-05-09T06:45:52.746Z,15.38
2024-05-09T06:46:53.659Z,15.39
2024-05-09T06:47:52.926Z,15.46
2024-05-09T06:48:53.355Z,15.49
2024-05-09T06:49:52.928Z,15.52
2024-05-09T06:50:53.089Z,15.52
2024-05-09T06:51:52.997Z,15.60
2024-05-09T06:52:53.082Z,15.68
2024-05-09T06:53:53.142Z,15.71
2024-05-09T06:54:53.154Z,15.72
2024-05-09T06:55:53.262Z,15.80
2024-05-09T06:56:53.165Z,15.75
2024-05-09T06:57:53.441Z,15.76
2024-05-09T06:58:53.264Z,15.81
2024-05-09T06:59:53.290Z,15.87
2024-05-09T07:00:53.477Z,15.85
2024-05-09T07:01:53.479Z,15.84
2024-05-09T07:02:53.540Z,15.92
2024-05-09T07:04:57.462Z,15.97
2024-05-09T07:05:57.238Z,16.02
2024-05-09T07:06:57.218Z,16.03
2024-05-09T07:07:57.187Z,16.06
2024-05-09T07:08:57.144Z,16.05
2024-05-09T07:09:57.247Z,16.10
2024-05-09T07:10:57.249Z,16.13
2024-05-09T07:11:57.110Z,16.17
2024-05-09T07:12:57.062Z,16.08
2024-05-09T07:13:57.021Z,16.06
2024-05-09T07:14:56.976Z,16.13
2024-05-09T07:15:56.992Z,16.21
2024-05-09T07:16:57.068Z,16.15
2024-05-09T07:17:57.141Z,16.17
2024-05-09T07:18:57.123Z,16.25
2024-05-09T07:19:56.874Z,16.33
2024-05-09T07:20:57.351Z,16.27
2024-05-09T07:21:56.707Z,16.18
2024-05-09T07:22:56.853Z,16.11
2024-05-09T07:23:56.766Z,16.20
2024-05-09T07:24:56.605Z,16.33
2024-05-09T07:25:56.582Z,16.36
2024-05-09T07:26:56.655Z,16.47
2024-05-09T07:27:56.643Z,16.53
2024-05-09T07:28:56.585Z,16.53
2024-05-09T07:29:56.461Z,16.60
2024-05-09T07:30:56.482Z,16.73
2024-05-09T07:31:57.379Z,16.72
2024-05-09T07:32:56.995Z,16.65
2024-05-09T07:33:56.614Z,16.58
2024-05-09T07:34:56.380Z,16.55
2024-05-09T07:35:56.326Z,16.56
2024-05-09T07:36:56.311Z,16.63
2024-05-09T07:37:56.278Z,16.74
2024-05-09T07:38:56.109Z,16.68
2024-05-09T07:39:56.118Z,16.66
2024-05-09T07:40:56.043Z,16.76
2024-05-09T07:41:56.027Z,16.85
2024-05-09T07:42:55.937Z,16.98
2024-05-09T07:43:55.986Z,17.04
2024-05-09T07:45:00.935Z,17.08
2024-05-09T07:45:59.704Z,17.08
2024-05-09T07:49:44.077Z,16.93
2024-05-09T07:50:35.216Z,16.90
2024-05-09T07:52:38.942Z,16.94
2024-05-09T07:53:21.848Z,16.88
2024-05-09T07:53:58.311Z,16.80
2024-05-09T07:54:56.720Z,16.84
2024-05-09T07:55:55.984Z,16.91
2024-05-09T07:56:55.624Z,16.97
2024-05-09T07:57:55.380Z,17.06
2024-05-09T07:58:55.337Z,17.16
2024-05-09T07:59:55.197Z,17.24
2024-05-09T08:00:55.459Z,17.29
2024-05-09T08:01:55.265Z,17.32
2024-05-09T08:02:55.113Z,17.32
2024-05-09T08:03:55.294Z,17.36
2024-05-09T08:04:55.099Z,17.25
2024-05-09T08:05:55.000Z,17.14
2024-05-09T08:06:54.895Z,17.19
2024-05-09T08:07:54.871Z,17.32
2024-05-09T08:08:54.895Z,17.39
2024-05-09T08:09:54.854Z,17.50
2024-05-09T08:10:54.812Z,17.48
2024-05-09T08:11:54.786Z,17.42
2024-05-09T08:12:54.759Z,17.40
2024-05-09T08:13:54.715Z,17.40
2024-05-09T08:14:54.631Z,17.36
2024-05-09T08:15:54.666Z,17.36
2024-05-09T08:16:54.678Z,17.44
2024-05-09T08:17:54.821Z,17.54
2024-05-09T08:18:55.965Z,17.63
2024-05-09T08:19:54.561Z,17.70
2024-05-09T08:20:54.578Z,17.75
2024-05-09T08:21:54.621Z,17.77
2024-05-09T08:22:54.633Z,17.79
2024-05-09T08:23:54.674Z,17.85
2024-05-09T08:24:54.865Z,17.88
2024-05-09T08:25:54.584Z,17.85
2024-05-09T08:26:54.666Z,17.79
2024-05-09T08:27:54.863Z,17.83
2024-05-09T08:28:54.618Z,17.83
2024-05-09T08:29:54.597Z,17.84
2024-05-09T08:30:54.621Z,17.85
2024-05-09T08:31:54.642Z,18.02
2024-05-09T08:32:54.654Z,18.14
2024-05-09T08:33:54.749Z,18.25
2024-05-09T08:34:54.763Z,18.34
2024-05-09T08:35:54.353Z,18.32
2024-05-09T08:36:55.143Z,18.34
2024-05-09T08:37:55.129Z,18.33
2024-05-09T08:38:54.369Z,18.18
2024-05-09T08:39:54.301Z,18.23
2024-05-09T08:40:54.508Z,18.22
2024-05-09T08:41:54.195Z,18.05
2024-05-09T08:42:54.263Z,17.96
2024-05-09T08:43:54.209Z,17.93
2024-05-09T08:44:54.207Z,18.06
2024-05-09T08:45:54.239Z,18.10
2024-05-09T08:46:54.427Z,18.07
2024-05-09T08:47:54.101Z,18.00
2024-05-09T08:48:54.360Z,18.14
2024-05-09T08:49:54.126Z,18.21
2024-05-09T08:50:54.198Z,18.23
2024-05-09T08:51:54.176Z,18.32
2024-05-09T08:52:54.061Z,18.39
2024-05-09T08:53:53.973Z,18.56
2024-05-09T08:54:53.885Z,18.49
2024-05-09T08:55:53.986Z,18.47
2024-05-09T08:56:54.204Z,18.39
2024-05-09T08:57:54.124Z,18.24
2024-05-09T08:58:54.098Z,18.15
2024-05-09T08:59:53.908Z,18.22
2024-05-09T09:00:54.009Z,18.35
2024-05-09T09:01:54.037Z,18.41
2024-05-09T09:02:53.970Z,18.46
2024-05-09T09:03:54.156Z,18.66
2024-05-09T09:04:53.898Z,18.83
2024-05-09T09:05:53.817Z,18.92
2024-05-09T09:06:57.118Z,19.10
2024-05-09T09:07:53.756Z,19.06
2024-05-09T09:08:53.766Z,19.17
2024-05-09T09:09:53.706Z,19.30
2024-05-09T09:10:53.539Z,19.09
2024-05-09T09:11:53.557Z,18.97
2024-05-09T09:12:53.632Z,18.74
2024-05-09T09:13:53.513Z,18.58
2024-05-09T09:14:53.292Z,18.74
2024-05-09T09:15:53.321Z,18.74
2024-05-09T09:16:53.217Z,18.89
2024-05-09T09:17:53.479Z,18.96
2024-05-09T09:18:53.398Z,18.94
2024-05-09T09:19:53.069Z,18.97
2024-05-09T09:20:53.058Z,18.99
2024-05-09T09:21:52.946Z,18.99
2024-05-09T09:22:52.837Z,18.99
2024-05-09T09:23:52.866Z,18.96
2024-05-09T09:24:52.790Z,19.00
2024-05-09T09:25:52.778Z,19.06
2024-05-09T09:26:52.563Z,19.14
2024-05-09T09:27:52.578Z,19.09
2024-05-09T09:28:52.566Z,19.24
2024-05-09T09:29:52.426Z,19.36
2024-05-09T09:30:52.417Z,19.46
2024-05-09T09:31:52.283Z,19.50
2024-05-09T09:32:52.540Z,19.44
2024-05-09T09:33:52.676Z,19.39
2024-05-09T09:34:52.250Z,19.44
2024-05-09T09:35:52.223Z,19.50
2024-05-09T09:36:52.225Z,19.61
2024-05-09T09:37:52.215Z,19.58
2024-05-09T09:38:52.183Z,19.56
2024-05-09T09:39:52.039Z,19.46
2024-05-09T09:40:52.072Z,19.58
2024-05-09T09:41:51.955Z,19.71
2024-05-09T09:42:52.197Z,19.74
2024-05-09T09:43:51.998Z,19.62
2024-05-09T09:45:01.858Z,19.65
2024-05-09T09:45:53.687Z,19.64
2024-05-09T09:46:51.867Z,19.57
2024-05-09T09:47:51.878Z,19.49
2024-05-09T09:48:51.884Z,19.55
2024-05-09T09:49:51.730Z,19.62
2024-05-09T09:50:51.679Z,19.71
2024-05-09T09:51:51.638Z,19.80
2024-05-09T09:52:51.451Z,19.75
2024-05-09T09:53:51.320Z,19.65
2024-05-09T09:54:51.478Z,19.74
2024-05-09T09:55:51.285Z,19.83
2024-05-09T09:56:51.185Z,19.96
2024-05-09T09:57:51.240Z,19.99
2024-05-09T09:58:51.201Z,19.88
2024-05-09T09:59:51.097Z,19.90
2024-05-09T10:00:51.376Z,19.93
2024-05-09T10:01:51.248Z,20.08
2024-05-09T10:02:51.267Z,20.17
2024-05-09T10:03:51.488Z,20.23
2024-05-09T10:04:51.051Z,20.20
2024-05-09T10:05:50.982Z,20.14
2024-05-09T10:06:50.902Z,20.17
2024-05-09T10:07:50.952Z,20.14
2024-05-09T10:08:50.950Z,19.97
2024-05-09T10:09:50.898Z,19.97
2024-05-09T10:10:50.966Z,20.15
2024-05-09T10:12:50.773Z,20.17
2024-05-09T10:13:50.612Z,20.27
2024-05-09T10:14:50.716Z,20.38
2024-05-09T10:15:50.676Z,20.40
2024-05-09T10:16:50.534Z,20.47
2024-05-09T10:17:50.648Z,20.50
2024-05-09T10:18:50.580Z,20.43
2024-05-09T10:19:50.629Z,20.46
2024-05-09T10:20:50.447Z,20.50
2024-05-09T10:21:50.438Z,20.43
2024-05-09T10:22:50.337Z,20.35
2024-05-09T10:23:50.259Z,20.43
2024-05-09T10:24:50.432Z,20.43
2024-05-09T10:25:50.277Z,20.41
2024-05-09T10:26:50.167Z,20.55
2024-05-09T10:27:50.231Z,20.75
2024-05-09T10:28:50.119Z,20.83
2024-05-09T10:29:50.078Z,20.90
2024-05-09T10:31:49.937Z,21.14
2024-05-09T10:32:50.314Z,21.04
2024-05-09T10:33:50.857Z,20.99
2024-05-09T10:34:49.808Z,20.93
2024-05-09T10:35:49.727Z,20.82
2024-05-09T10:36:49.839Z,20.83
2024-05-09T10:37:49.648Z,20.86
2024-05-09T10:38:49.682Z,20.86
2024-05-09T10:39:49.679Z,20.95
2024-05-09T10:40:49.618Z,20.90
2024-05-09T10:41:49.472Z,20.93
2024-05-09T10:42:49.479Z,20.99
2024-05-09T10:43:49.407Z,21.09
2024-05-09T10:44:49.286Z,21.09
2024-05-09T10:45:49.217Z,21.09
2024-05-09T10:46:49.213Z,21.03
2024-05-09T10:47:49.234Z,20.89
2024-05-09T10:48:49.617Z,20.89
2024-05-09T10:49:49.247Z,20.90
2024-05-09T10:50:49.016Z,20.87
2024-05-09T10:51:49.057Z,21.09
2024-05-09T10:52:48.925Z,21.08
2024-05-09T10:53:48.922Z,21.17
2024-05-09T10:54:48.896Z,21.29
2024-05-09T10:55:48.875Z,21.40
2024-05-09T10:56:48.745Z,21.41
2024-05-09T10:57:48.672Z,21.40
2024-05-09T10:58:48.652Z,21.25
2024-05-09T10:59:48.564Z,21.14
2024-05-09T11:00:48.631Z,21.25
2024-05-09T11:01:48.505Z,21.29
2024-05-09T11:02:48.535Z,21.15
2024-05-09T11:03:48.631Z,21.24
2024-05-09T11:04:48.476Z,21.43
2024-05-09T11:05:48.446Z,21.45
2024-05-09T11:06:48.287Z,21.61
2024-05-09T11:07:48.113Z,21.59
2024-05-09T11:08:48.040Z,21.51
2024-05-09T11:09:48.374Z,21.42
2024-05-09T11:10:48.076Z,21.47
2024-05-09T11:11:48.008Z,21.49
2024-05-09T11:12:47.972Z,21.56
2024-05-09T11:13:47.864Z,21.75
2024-05-09T11:14:47.847Z,21.76
2024-05-09T11:15:47.802Z,21.91
2024-05-09T11:16:47.726Z,21.83
2024-05-09T11:17:47.976Z,21.63
2024-05-09T11:18:47.858Z,21.59
2024-05-09T11:19:47.598Z,21.72
2024-05-09T11:20:47.526Z,21.83
2024-05-09T11:21:47.577Z,21.90
2024-05-09T11:22:47.399Z,21.78
2024-05-09T11:23:47.301Z,21.93
2024-05-09T11:24:47.321Z,22.09
2024-05-09T11:25:47.115Z,22.11
2024-05-09T11:26:47.109Z,22.11
2024-05-09T11:27:47.051Z,22.22
2024-05-09T11:28:46.905Z,22.25
2024-05-09T11:29:46.896Z,22.32
2024-05-09T11:30:46.801Z,22.37
2024-05-09T11:31:46.902Z,22.49
2024-05-09T11:32:46.800Z,22.47
2024-05-09T11:33:47.632Z,22.47
2024-05-09T11:34:46.622Z,22.57
2024-05-09T11:35:46.360Z,22.65
2024-05-09T11:36:46.331Z,22.61
2024-05-09T11:37:46.336Z,22.76
2024-05-09T11:38:46.191Z,22.79
2024-05-09T11:39:46.156Z,22.66
2024-05-09T11:40:46.199Z,22.55
2024-05-09T11:41:45.985Z,22.55
2024-05-09T11:42:45.984Z,22.70
2024-05-09T11:43:45.801Z,22.79
2024-05-09T11:44:45.708Z,22.72
2024-05-09T11:45:45.752Z,22.64
2024-05-09T11:46:45.617Z,22.54
2024-05-09T11:47:45.598Z,22.53
2024-05-09T11:48:45.541Z,22.72
2024-05-09T11:49:45.347Z,22.78
2024-05-09T11:50:45.476Z,22.86
2024-05-09T11:51:45.203Z,22.86
2024-05-09T11:52:45.131Z,22.86
2024-05-09T11:53:44.996Z,22.91
2024-05-09T11:54:45.383Z,22.85
2024-05-09T11:55:44.870Z,22.88
2024-05-09T11:56:44.853Z,22.78
2024-05-09T11:57:44.720Z,22.82
2024-05-09T11:58:44.582Z,22.57
2024-05-09T11:59:44.478Z,22.51
2024-05-09T12:00:44.619Z,22.61
2024-05-09T12:01:44.336Z,22.73
2024-05-09T12:02:44.221Z,22.93
2024-05-09T12:03:44.413Z,23.03
2024-05-09T12:04:44.567Z,22.94
2024-05-09T12:05:44.189Z,22.75
2024-05-09T12:06:43.959Z,22.71
2024-05-09T12:07:44.010Z,22.70
2024-05-09T12:08:43.956Z,22.46
2024-05-09T12:09:43.735Z,22.41
2024-05-09T12:10:43.705Z,22.39
2024-05-09T12:11:43.558Z,22.53
2024-05-09T12:12:43.558Z,22.77
2024-05-09T12:13:43.452Z,22.84
2024-05-09T12:14:43.360Z,22.85
2024-05-09T12:15:43.393Z,22.93
2024-05-09T12:16:43.310Z,22.67
2024-05-09T12:17:43.273Z,22.56
2024-05-09T12:18:43.181Z,22.47
2024-05-09T12:19:43.060Z,22.38
2024-05-09T12:20:43.875Z,22.52
2024-05-09T12:21:42.973Z,22.56
2024-05-09T12:22:42.876Z,22.49
2024-05-09T12:23:42.871Z,22.71
2024-05-09T12:24:42.750Z,22.93
2024-05-09T12:25:42.687Z,22.65
2024-05-09T12:26:42.591Z,22.57
2024-05-09T12:27:42.675Z,22.53
2024-05-09T12:28:42.401Z,22.49
2024-05-09T12:29:42.420Z,22.58
2024-05-09T12:30:42.392Z,22.71
2024-05-09T12:31:42.224Z,22.69
2024-05-09T12:32:42.217Z,22.84
2024-05-09T12:33:42.226Z,22.99
2024-05-09T12:34:42.077Z,23.25
2024-05-09T12:35:44.432Z,23.44
2024-05-09T12:36:41.841Z,23.71
2024-05-09T12:37:41.667Z,23.83
2024-05-09T12:38:41.554Z,23.81
2024-05-09T12:39:41.558Z,23.65
2024-05-09T12:40:41.461Z,23.49
2024-05-09T12:41:41.210Z,23.66
2024-05-09T12:42:41.299Z,23.97
2024-05-09T12:43:41.031Z,24.14
2024-05-09T12:44:40.884Z,24.06
2024-05-09T12:45:40.918Z,24.03
2024-05-09T12:46:40.558Z,24.03
2024-05-09T12:47:40.541Z,24.19
2024-05-09T12:48:40.512Z,24.26
2024-05-09T12:49:40.291Z,24.28
2024-05-09T12:50:40.249Z,24.37
2024-05-09T12:51:40.016Z,24.32
2024-05-09T12:52:39.772Z,23.68
2024-05-09T12:53:39.728Z,23.38
2024-05-09T12:54:39.545Z,22.92
2024-05-09T12:55:44.875Z,22.93
2024-05-09T12:56:40.304Z,22.70
2024-05-09T12:57:39.278Z,22.48
2024-05-09T12:58:39.247Z,22.36
2024-05-09T12:59:39.046Z,22.21
2024-05-09T13:00:39.275Z,22.22